sensor_id;sensor_type;location;lat;lon;timestamp;P1;durP1;ratioP1;P2;durP2;ratioP2
39256;SDS011;67272;48.066;11.038;2024-01-15T00:01:35;6.87;;;4.80;;
39256;SDS011;67272;48.066;11.038;2024-01-15T00:04:01;7.10;;;5.13;;
39256;SDS011;67272;48.066;11.038;2024-01-15T00:06:28;6.67;;;5.13;;
39256;SDS011;67272;48.066;11.038;2024-01-15T00:08:54;7.33;;;5.30;;
39256;SDS011;67272;48.066;11.038;2024-01-15T00:11:23;6.57;;;4.93;;
39256;SDS011;67272;48.066;11.038;2024-01-15T00:13:49;7.37;;;4.73;;
39256;SDS011;67272;48.066;11.038;2024-01-15T00:16:16;5.53;;;4.67;;
39256;SDS011;67272;48.066;11.038;2024-01-15T00:18:42;7.33;;;5.50;;
39256;SDS011;67272;48.066;11.038;2024-01-15T00:21:08;7.13;;;5.47;;
39256;SDS011;67272;48.066;11.038;2024-01-15T00:23:44;8.70;;;4.83;;
39256;SDS011;67272;48.066;11.038;2024-01-15T00:26:16;5.97;;;4.27;;
39256;SDS011;67272;48.066;11.038;2024-01-15T00:28:43;7.80;;;5.27;;
39256;SDS011;67272;48.066;11.038;2024-01-15T00:31:09;8.10;;;5.27;;
39256;SDS011;67272;48.066;11.038;2024-01-15T00:33:35;6.87;;;4.90;;
39256;SDS011;67272;48.066;11.038;2024-01-15T00:36:02;6.50;;;4.93;;
39256;SDS011;67272;48.066;11.038;2024-01-15T00:38:34;9.30;;;5.53;;
39256;SDS011;67272;48.066;11.038;2024-01-15T00:41:01;6.80;;;4.77;;
39256;SDS011;67272;48.066;11.038;2024-01-15T00:43:28;7.97;;;5.73;;
39256;SDS011;67272;48.066;11.038;2024-01-15T00:45:57;7.20;;;5.17;;
39256;SDS011;67272;48.066;11.038;2024-01-15T00:48:24;7.40;;;5.70;;
39256;SDS011;67272;48.066;11.038;2024-01-15T00:50:50;9.30;;;5.67;;
39256;SDS011;67272;48.066;11.038;2024-01-15T00:53:20;7.20;;;5.50;;
39256;SDS011;67272;48.066;11.038;2024-01-15T00:55:49;7.87;;;5.13;;
39256;SDS011;67272;48.066;11.038;2024-01-15T00:58:18;9.30;;;5.80;;
39256;SDS011;67272;48.066;11.038;2024-01-15T01:00:45;10.00;;;6.57;;
39256;SDS011;67272;48.066;11.038;2024-01-15T01:03:15;8.60;;;6.53;;
39256;SDS011;67272;48.066;11.038;2024-01-15T01:05:50;9.63;;;6.97;;
39256;SDS011;67272;48.066;11.038;2024-01-15T01:08:17;10.20;;;7.00;;
39256;SDS011;67272;48.066;11.038;2024-01-15T01:10:43;11.87;;;7.10;;
39256;SDS011;67272;48.066;11.038;2024-01-15T01:13:09;10.40;;;7.03;;
39256;SDS011;67272;48.066;11.038;2024-01-15T01:15:36;11.13;;;6.73;;
39256;SDS011;67272;48.066;11.038;2024-01-15T01:18:04;12.63;;;7.87;;
39256;SDS011;67272;48.066;11.038;2024-01-15T01:20:33;10.60;;;7.30;;
39256;SDS011;67272;48.066;11.038;2024-01-15T01:22:59;12.50;;;8.30;;
39256;SDS011;67272;48.066;11.038;2024-01-15T01:25:26;11.33;;;8.00;;
39256;SDS011;67272;48.066;11.038;2024-01-15T01:27:52;11.43;;;8.10;;
39256;SDS011;67272;48.066;11.038;2024-01-15T01:30:19;11.60;;;7.97;;
39256;SDS011;67272;48.066;11.038;2024-01-15T01:32:51;13.20;;;8.30;;
39256;SDS011;67272;48.066;11.038;2024-01-15T01:35:20;12.40;;;8.60;;
39256;SDS011;67272;48.066;11.038;2024-01-15T01:37:47;12.63;;;7.97;;
39256;SDS011;67272;48.066;11.038;2024-01-15T01:40:13;13.43;;;8.57;;
39256;SDS011;67272;48.066;11.038;2024-01-15T01:42:39;12.40;;;8.13;;
39256;SDS011;67272;48.066;11.038;2024-01-15T01:45:05;11.90;;;8.03;;
39256;SDS011;67272;48.066;11.038;2024-01-15T01:47:35;11.80;;;8.00;;
39256;SDS011;67272;48.066;11.038;2024-01-15T01:50:02;12.90;;;8.20;;
39256;SDS011;67272;48.066;11.038;2024-01-15T01:52:28;12.03;;;7.83;;
39256;SDS011;67272;48.066;11.038;2024-01-15T01:54:58;12.87;;;8.80;;
39256;SDS011;67272;48.066;11.038;2024-01-15T01:57:26;12.10;;;8.40;;
39256;SDS011;67272;48.066;11.038;2024-01-15T01:59:52;13.03;;;7.67;;
39256;SDS011;67272;48.066;11.038;2024-01-15T02:02:22;12.00;;;8.37;;
39256;SDS011;67272;48.066;11.038;2024-01-15T02:04:51;11.93;;;8.53;;
39256;SDS011;67272;48.066;11.038;2024-01-15T02:07:24;11.50;;;8.13;;
39256;SDS011;67272;48.066;11.038;2024-01-15T02:09:56;10.87;;;7.53;;
39256;SDS011;67272;48.066;11.038;2024-01-15T02:12:22;11.60;;;7.53;;
39256;SDS011;67272;48.066;11.038;2024-01-15T02:14:58;7.30;;;5.43;;
39256;SDS011;67272;48.066;11.038;2024-01-15T02:17:25;10.77;;;7.53;;
39256;SDS011;67272;48.066;11.038;2024-01-15T02:19:51;10.17;;;7.10;;
39256;SDS011;67272;48.066;11.038;2024-01-15T02:22:24;11.27;;;7.73;;
39256;SDS011;67272;48.066;11.038;2024-01-15T02:24:50;14.50;;;7.67;;
39256;SDS011;67272;48.066;11.038;2024-01-15T02:27:16;12.40;;;7.73;;
39256;SDS011;67272;48.066;11.038;2024-01-15T02:29:44;10.83;;;6.87;;
39256;SDS011;67272;48.066;11.038;2024-01-15T02:32:10;11.37;;;7.33;;
39256;SDS011;67272;48.066;11.038;2024-01-15T02:34:37;14.00;;;8.37;;
39256;SDS011;67272;48.066;11.038;2024-01-15T02:37:06;11.30;;;7.77;;
39256;SDS011;67272;48.066;11.038;2024-01-15T02:39:32;11.10;;;6.93;;
39256;SDS011;67272;48.066;11.038;2024-01-15T02:41:59;10.67;;;7.17;;
39256;SDS011;67272;48.066;11.038;2024-01-15T02:44:25;10.57;;;7.20;;
39256;SDS011;67272;48.066;11.038;2024-01-15T02:46:57;11.40;;;7.53;;
39256;SDS011;67272;48.066;11.038;2024-01-15T02:49:24;10.07;;;6.83;;
39256;SDS011;67272;48.066;11.038;2024-01-15T02:51:50;8.30;;;6.23;;
39256;SDS011;67272;48.066;11.038;2024-01-15T02:54:16;10.50;;;6.17;;
39256;SDS011;67272;48.066;11.038;2024-01-15T02:56:49;9.77;;;6.57;;
39256;SDS011;67272;48.066;11.038;2024-01-15T02:59:15;11.53;;;6.83;;
39256;SDS011;67272;48.066;11.038;2024-01-15T03:01:42;9.27;;;6.70;;
39256;SDS011;67272;48.066;11.038;2024-01-15T03:04:08;9.83;;;6.37;;
39256;SDS011;67272;48.066;11.038;2024-01-15T03:06:34;9.53;;;6.10;;
39256;SDS011;67272;48.066;11.038;2024-01-15T03:09:03;10.40;;;6.97;;
39256;SDS011;67272;48.066;11.038;2024-01-15T03:11:36;10.60;;;6.50;;
39256;SDS011;67272;48.066;11.038;2024-01-15T03:14:05;11.37;;;6.93;;
39256;SDS011;67272;48.066;11.038;2024-01-15T03:16:34;8.53;;;6.50;;
39256;SDS011;67272;48.066;11.038;2024-01-15T03:19:01;10.57;;;6.90;;
39256;SDS011;67272;48.066;11.038;2024-01-15T03:21:33;11.00;;;6.37;;
39256;SDS011;67272;48.066;11.038;2024-01-15T03:24:03;9.03;;;6.00;;
39256;SDS011;67272;48.066;11.038;2024-01-15T03:26:29;10.47;;;5.97;;
39256;SDS011;67272;48.066;11.038;2024-01-15T03:28:55;9.03;;;5.27;;
39256;SDS011;67272;48.066;11.038;2024-01-15T03:31:28;9.60;;;6.13;;
39256;SDS011;67272;48.066;11.038;2024-01-15T03:33:57;8.50;;;5.43;;
39256;SDS011;67272;48.066;11.038;2024-01-15T03:36:24;8.70;;;6.00;;
39256;SDS011;67272;48.066;11.038;2024-01-15T03:38:50;8.93;;;6.03;;
39256;SDS011;67272;48.066;11.038;2024-01-15T03:41:19;9.40;;;6.03;;
39256;SDS011;67272;48.066;11.038;2024-01-15T03:43:46;10.40;;;6.57;;
39256;SDS011;67272;48.066;11.038;2024-01-15T03:46:12;9.63;;;5.90;;
39256;SDS011;67272;48.066;11.038;2024-01-15T03:48:38;10.27;;;5.37;;
39256;SDS011;67272;48.066;11.038;2024-01-15T03:51:05;9.73;;;5.67;;
39256;SDS011;67272;48.066;11.038;2024-01-15T03:53:31;8.60;;;5.43;;
39256;SDS011;67272;48.066;11.038;2024-01-15T03:55:57;7.50;;;5.50;;
39256;SDS011;67272;48.066;11.038;2024-01-15T03:58:27;8.30;;;5.40;;
39256;SDS011;67272;48.066;11.038;2024-01-15T04:00:56;8.80;;;6.03;;
39256;SDS011;67272;48.066;11.038;2024-01-15T04:03:28;9.20;;;5.10;;
39256;SDS011;67272;48.066;11.038;2024-01-15T04:05:57;7.90;;;5.27;;
39256;SDS011;67272;48.066;11.038;2024-01-15T04:08:26;8.03;;;5.17;;
39256;SDS011;67272;48.066;11.038;2024-01-15T04:10:52;7.80;;;5.40;;
39256;SDS011;67272;48.066;11.038;2024-01-15T04:13:20;7.67;;;4.77;;
39256;SDS011;67272;48.066;11.038;2024-01-15T04:15:46;9.00;;;5.00;;
39256;SDS011;67272;48.066;11.038;2024-01-15T04:18:15;6.63;;;4.77;;
39256;SDS011;67272;48.066;11.038;2024-01-15T04:20:43;6.67;;;4.57;;
39256;SDS011;67272;48.066;11.038;2024-01-15T04:23:10;9.87;;;5.33;;
39256;SDS011;67272;48.066;11.038;2024-01-15T04:25:36;9.13;;;5.13;;
39256;SDS011;67272;48.066;11.038;2024-01-15T04:28:02;9.80;;;5.70;;
39256;SDS011;67272;48.066;11.038;2024-01-15T04:30:29;6.27;;;3.93;;
39256;SDS011;67272;48.066;11.038;2024-01-15T04:32:59;8.30;;;4.87;;
39256;SDS011;67272;48.066;11.038;2024-01-15T04:35:25;6.73;;;4.50;;
39256;SDS011;67272;48.066;11.038;2024-01-15T04:37:51;8.03;;;4.07;;
39256;SDS011;67272;48.066;11.038;2024-01-15T04:40:18;6.90;;;4.20;;
39256;SDS011;67272;48.066;11.038;2024-01-15T04:42:44;5.50;;;3.90;;
39256;SDS011;67272;48.066;11.038;2024-01-15T04:45:13;8.37;;;5.10;;
39256;SDS011;67272;48.066;11.038;2024-01-15T04:47:39;7.47;;;4.97;;
39256;SDS011;67272;48.066;11.038;2024-01-15T04:50:06;8.07;;;4.60;;
39256;SDS011;67272;48.066;11.038;2024-01-15T04:52:32;8.13;;;5.03;;
39256;SDS011;67272;48.066;11.038;2024-01-15T04:54:58;5.83;;;3.77;;
39256;SDS011;67272;48.066;11.038;2024-01-15T04:57:27;7.10;;;5.20;;
39256;SDS011;67272;48.066;11.038;2024-01-15T04:59:56;6.67;;;4.70;;
39256;SDS011;67272;48.066;11.038;2024-01-15T05:02:23;8.07;;;4.87;;
39256;SDS011;67272;48.066;11.038;2024-01-15T05:04:49;6.63;;;4.63;;
39256;SDS011;67272;48.066;11.038;2024-01-15T05:07:15;8.43;;;4.93;;
39256;SDS011;67272;48.066;11.038;2024-01-15T05:09:42;7.47;;;4.73;;
39256;SDS011;67272;48.066;11.038;2024-01-15T05:12:08;9.80;;;5.97;;
39256;SDS011;67272;48.066;11.038;2024-01-15T05:17:05;7.23;;;4.90;;
39256;SDS011;67272;48.066;11.038;2024-01-15T05:19:31;6.30;;;4.27;;
39256;SDS011;67272;48.066;11.038;2024-01-15T05:21:58;7.00;;;4.40;;
39256;SDS011;67272;48.066;11.038;2024-01-15T05:24:24;8.30;;;4.77;;
39256;SDS011;67272;48.066;11.038;2024-01-15T05:26:51;6.70;;;4.60;;
39256;SDS011;67272;48.066;11.038;2024-01-15T05:29:18;7.17;;;4.70;;
39256;SDS011;67272;48.066;11.038;2024-01-15T05:31:44;8.83;;;5.33;;
39256;SDS011;67272;48.066;11.038;2024-01-15T05:34:13;6.27;;;4.83;;
39256;SDS011;67272;48.066;11.038;2024-01-15T05:36:40;5.50;;;4.60;;
39256;SDS011;67272;48.066;11.038;2024-01-15T05:39:09;6.07;;;4.47;;
39256;SDS011;67272;48.066;11.038;2024-01-15T05:41:35;7.47;;;4.53;;
39256;SDS011;67272;48.066;11.038;2024-01-15T05:44:02;7.77;;;4.63;;
39256;SDS011;67272;48.066;11.038;2024-01-15T05:46:28;8.10;;;5.07;;
39256;SDS011;67272;48.066;11.038;2024-01-15T05:48:54;8.33;;;4.87;;
39256;SDS011;67272;48.066;11.038;2024-01-15T05:51:21;7.23;;;5.37;;
39256;SDS011;67272;48.066;11.038;2024-01-15T05:53:47;8.93;;;5.60;;
39256;SDS011;67272;48.066;11.038;2024-01-15T05:56:13;8.47;;;5.43;;
39256;SDS011;67272;48.066;11.038;2024-01-15T05:58:40;8.13;;;5.10;;
39256;SDS011;67272;48.066;11.038;2024-01-15T06:01:06;8.77;;;5.20;;
39256;SDS011;67272;48.066;11.038;2024-01-15T06:03:32;8.10;;;4.73;;
39256;SDS011;67272;48.066;11.038;2024-01-15T06:05:58;8.23;;;5.80;;
39256;SDS011;67272;48.066;11.038;2024-01-15T06:08:24;7.67;;;4.90;;
39256;SDS011;67272;48.066;11.038;2024-01-15T06:10:53;8.10;;;5.67;;
39256;SDS011;67272;48.066;11.038;2024-01-15T06:13:19;7.37;;;4.90;;
39256;SDS011;67272;48.066;11.038;2024-01-15T06:15:46;7.33;;;5.33;;
39256;SDS011;67272;48.066;11.038;2024-01-15T06:18:12;11.30;;;6.33;;
39256;SDS011;67272;48.066;11.038;2024-01-15T06:20:38;9.03;;;5.90;;
39256;SDS011;67272;48.066;11.038;2024-01-15T06:23:05;8.70;;;5.93;;
39256;SDS011;67272;48.066;11.038;2024-01-15T06:25:34;7.90;;;5.50;;
39256;SDS011;67272;48.066;11.038;2024-01-15T06:28:00;7.80;;;5.37;;
39256;SDS011;67272;48.066;11.038;2024-01-15T06:30:27;7.93;;;5.23;;
39256;SDS011;67272;48.066;11.038;2024-01-15T06:32:55;7.03;;;4.27;;
39256;SDS011;67272;48.066;11.038;2024-01-15T06:35:21;7.13;;;5.27;;
39256;SDS011;67272;48.066;11.038;2024-01-15T06:37:47;6.90;;;4.90;;
39256;SDS011;67272;48.066;11.038;2024-01-15T06:40:20;7.77;;;5.27;;
39256;SDS011;67272;48.066;11.038;2024-01-15T06:42:46;7.30;;;4.57;;
39256;SDS011;67272;48.066;11.038;2024-01-15T06:45:19;6.53;;;4.60;;
39256;SDS011;67272;48.066;11.038;2024-01-15T06:47:45;7.43;;;4.67;;
39256;SDS011;67272;48.066;11.038;2024-01-15T06:50:11;6.90;;;4.87;;
39256;SDS011;67272;48.066;11.038;2024-01-15T06:52:38;8.50;;;5.03;;
39256;SDS011;67272;48.066;11.038;2024-01-15T06:55:07;5.87;;;4.40;;
39256;SDS011;67272;48.066;11.038;2024-01-15T06:57:33;6.30;;;4.10;;
39256;SDS011;67272;48.066;11.038;2024-01-15T07:00:03;6.67;;;5.07;;
39256;SDS011;67272;48.066;11.038;2024-01-15T07:02:33;7.27;;;5.17;;
39256;SDS011;67272;48.066;11.038;2024-01-15T07:05:02;6.77;;;4.73;;
39256;SDS011;67272;48.066;11.038;2024-01-15T07:07:33;9.03;;;5.90;;
39256;SDS011;67272;48.066;11.038;2024-01-15T07:10:06;8.73;;;5.43;;
39256;SDS011;67272;48.066;11.038;2024-01-15T07:12:32;7.97;;;5.47;;
39256;SDS011;67272;48.066;11.038;2024-01-15T07:14:59;7.20;;;4.90;;
39256;SDS011;67272;48.066;11.038;2024-01-15T07:17:25;8.20;;;5.07;;
39256;SDS011;67272;48.066;11.038;2024-01-15T07:19:51;8.33;;;4.80;;
39256;SDS011;67272;48.066;11.038;2024-01-15T07:22:17;7.43;;;4.80;;
39256;SDS011;67272;48.066;11.038;2024-01-15T07:24:45;7.10;;;4.73;;
39256;SDS011;67272;48.066;11.038;2024-01-15T07:27:14;7.17;;;4.63;;
39256;SDS011;67272;48.066;11.038;2024-01-15T07:29:41;6.47;;;4.77;;
39256;SDS011;67272;48.066;11.038;2024-01-15T07:32:11;5.87;;;4.50;;
39256;SDS011;67272;48.066;11.038;2024-01-15T07:34:37;6.33;;;4.97;;
39256;SDS011;67272;48.066;11.038;2024-01-15T07:37:04;10.50;;;5.97;;
39256;SDS011;67272;48.066;11.038;2024-01-15T07:39:33;7.53;;;5.10;;
39256;SDS011;67272;48.066;11.038;2024-01-15T07:42:00;5.53;;;3.90;;
39256;SDS011;67272;48.066;11.038;2024-01-15T07:44:27;7.27;;;4.80;;
39256;SDS011;67272;48.066;11.038;2024-01-15T07:46:53;6.17;;;5.07;;
39256;SDS011;67272;48.066;11.038;2024-01-15T07:49:19;6.80;;;4.33;;
39256;SDS011;67272;48.066;11.038;2024-01-15T07:51:49;8.20;;;5.00;;
39256;SDS011;67272;48.066;11.038;2024-01-15T07:54:25;6.23;;;4.20;;
39256;SDS011;67272;48.066;11.038;2024-01-15T07:56:55;7.00;;;4.83;;
39256;SDS011;67272;48.066;11.038;2024-01-15T07:59:21;6.43;;;4.63;;
39256;SDS011;67272;48.066;11.038;2024-01-15T08:01:51;5.63;;;4.30;;
39256;SDS011;67272;48.066;11.038;2024-01-15T08:04:18;8.17;;;5.27;;
39256;SDS011;67272;48.066;11.038;2024-01-15T08:06:44;6.50;;;4.60;;
39256;SDS011;67272;48.066;11.038;2024-01-15T08:09:11;6.97;;;4.70;;
39256;SDS011;67272;48.066;11.038;2024-01-15T08:11:44;6.33;;;5.13;;
39256;SDS011;67272;48.066;11.038;2024-01-15T08:14:10;9.43;;;5.37;;
39256;SDS011;67272;48.066;11.038;2024-01-15T08:16:38;7.07;;;4.87;;
39256;SDS011;67272;48.066;11.038;2024-01-15T08:19:08;10.77;;;6.43;;
39256;SDS011;67272;48.066;11.038;2024-01-15T08:21:38;7.93;;;5.13;;
39256;SDS011;67272;48.066;11.038;2024-01-15T08:24:05;7.07;;;4.77;;
39256;SDS011;67272;48.066;11.038;2024-01-15T08:26:32;6.73;;;4.73;;
39256;SDS011;67272;48.066;11.038;2024-01-15T08:28:58;6.17;;;4.23;;
39256;SDS011;67272;48.066;11.038;2024-01-15T08:31:25;7.73;;;4.37;;
39256;SDS011;67272;48.066;11.038;2024-01-15T08:33:51;6.37;;;4.20;;
39256;SDS011;67272;48.066;11.038;2024-01-15T08:36:18;6.70;;;4.33;;
39256;SDS011;67272;48.066;11.038;2024-01-15T08:38:44;6.47;;;4.50;;
39256;SDS011;67272;48.066;11.038;2024-01-15T08:41:10;6.40;;;4.43;;
39256;SDS011;67272;48.066;11.038;2024-01-15T08:43:37;6.40;;;4.23;;
39256;SDS011;67272;48.066;11.038;2024-01-15T08:46:03;5.70;;;3.80;;
39256;SDS011;67272;48.066;11.038;2024-01-15T08:48:29;7.07;;;3.83;;
39256;SDS011;67272;48.066;11.038;2024-01-15T08:50:55;5.87;;;3.67;;
39256;SDS011;67272;48.066;11.038;2024-01-15T08:53:22;8.03;;;4.67;;
39256;SDS011;67272;48.066;11.038;2024-01-15T08:55:48;5.67;;;3.73;;
39256;SDS011;67272;48.066;11.038;2024-01-15T08:58:15;6.80;;;4.40;;
39256;SDS011;67272;48.066;11.038;2024-01-15T09:00:41;5.97;;;4.13;;
39256;SDS011;67272;48.066;11.038;2024-01-15T09:03:07;6.73;;;4.20;;
39256;SDS011;67272;48.066;11.038;2024-01-15T09:05:34;5.80;;;3.50;;
39256;SDS011;67272;48.066;11.038;2024-01-15T09:08:00;6.15;;;5.35;;
39256;SDS011;67272;48.066;11.038;2024-01-15T09:10:26;7.27;;;4.37;;
39256;SDS011;67272;48.066;11.038;2024-01-15T09:12:52;5.23;;;3.97;;
39256;SDS011;67272;48.066;11.038;2024-01-15T09:15:18;5.97;;;3.80;;
39256;SDS011;67272;48.066;11.038;2024-01-15T09:17:45;6.22;;;4.50;;
39256;SDS011;67272;48.066;11.038;2024-01-15T09:20:11;6.50;;;5.65;;
39256;SDS011;67272;48.066;11.038;2024-01-15T09:22:38;7.17;;;4.63;;
39256;SDS011;67272;48.066;11.038;2024-01-15T09:25:06;6.50;;;3.73;;
39256;SDS011;67272;48.066;11.038;2024-01-15T09:27:35;5.20;;;3.87;;
39256;SDS011;67272;48.066;11.038;2024-01-15T09:30:01;4.83;;;3.47;;
39256;SDS011;67272;48.066;11.038;2024-01-15T09:32:27;5.27;;;4.07;;
39256;SDS011;67272;48.066;11.038;2024-01-15T09:34:54;3.73;;;3.03;;
39256;SDS011;67272;48.066;11.038;2024-01-15T09:37:20;4.47;;;3.57;;
39256;SDS011;67272;48.066;11.038;2024-01-15T09:39:46;5.20;;;3.57;;
39256;SDS011;67272;48.066;11.038;2024-01-15T09:42:13;4.83;;;3.23;;
39256;SDS011;67272;48.066;11.038;2024-01-15T09:44:40;5.60;;;3.03;;
39256;SDS011;67272;48.066;11.038;2024-01-15T09:47:06;5.30;;;3.43;;
39256;SDS011;67272;48.066;11.038;2024-01-15T09:49:33;4.93;;;3.50;;
39256;SDS011;67272;48.066;11.038;2024-01-15T09:51:59;4.10;;;3.10;;
39256;SDS011;67272;48.066;11.038;2024-01-15T09:54:26;4.43;;;3.28;;
39256;SDS011;67272;48.066;11.038;2024-01-15T09:56:53;4.03;;;3.23;;
39256;SDS011;67272;48.066;11.038;2024-01-15T09:59:20;5.23;;;3.43;;
39256;SDS011;67272;48.066;11.038;2024-01-15T10:01:48;5.60;;;4.10;;
39256;SDS011;67272;48.066;11.038;2024-01-15T10:04:16;4.37;;;3.40;;
39256;SDS011;67272;48.066;11.038;2024-01-15T10:06:43;4.13;;;3.30;;
39256;SDS011;67272;48.066;11.038;2024-01-15T10:09:13;4.67;;;2.93;;
39256;SDS011;67272;48.066;11.038;2024-01-15T10:11:42;5.40;;;3.77;;
39256;SDS011;67272;48.066;11.038;2024-01-15T10:14:09;4.10;;;3.23;;
39256;SDS011;67272;48.066;11.038;2024-01-15T10:16:39;4.63;;;3.30;;
39256;SDS011;67272;48.066;11.038;2024-01-15T10:19:05;5.53;;;3.60;;
39256;SDS011;67272;48.066;11.038;2024-01-15T10:21:32;3.90;;;2.97;;
39256;SDS011;67272;48.066;11.038;2024-01-15T10:24:01;6.67;;;3.80;;
39256;SDS011;67272;48.066;11.038;2024-01-15T10:26:31;4.57;;;3.47;;
39256;SDS011;67272;48.066;11.038;2024-01-15T10:29:00;5.43;;;3.97;;
39256;SDS011;67272;48.066;11.038;2024-01-15T10:31:26;5.87;;;4.17;;
39256;SDS011;67272;48.066;11.038;2024-01-15T10:33:53;5.27;;;3.63;;
39256;SDS011;67272;48.066;11.038;2024-01-15T10:36:19;6.33;;;3.40;;
39256;SDS011;67272;48.066;11.038;2024-01-15T10:38:46;5.40;;;3.67;;
39256;SDS011;67272;48.066;11.038;2024-01-15T10:41:12;4.87;;;3.20;;
39256;SDS011;67272;48.066;11.038;2024-01-15T10:43:38;6.80;;;4.00;;
39256;SDS011;67272;48.066;11.038;2024-01-15T10:46:06;5.07;;;4.38;;
39256;SDS011;67272;48.066;11.038;2024-01-15T10:48:33;4.47;;;3.50;;
39256;SDS011;67272;48.066;11.038;2024-01-15T10:51:01;4.80;;;3.80;;
39256;SDS011;67272;48.066;11.038;2024-01-15T10:53:36;4.43;;;3.37;;
39256;SDS011;67272;48.066;11.038;2024-01-15T10:56:05;4.27;;;3.17;;
39256;SDS011;67272;48.066;11.038;2024-01-15T10:58:33;3.93;;;2.80;;
39256;SDS011;67272;48.066;11.038;2024-01-15T11:01:03;4.03;;;2.87;;
39256;SDS011;67272;48.066;11.038;2024-01-15T11:03:36;4.23;;;3.17;;
39256;SDS011;67272;48.066;11.038;2024-01-15T11:06:02;4.47;;;3.43;;
39256;SDS011;67272;48.066;11.038;2024-01-15T11:08:29;4.83;;;3.20;;
39256;SDS011;67272;48.066;11.038;2024-01-15T11:10:55;4.27;;;3.23;;
39256;SDS011;67272;48.066;11.038;2024-01-15T11:13:23;3.40;;;2.50;;
39256;SDS011;67272;48.066;11.038;2024-01-15T11:16:06;3.70;;;3.00;;
39256;SDS011;67272;48.066;11.038;2024-01-15T11:23:54;4.03;;;3.23;;
39256;SDS011;67272;48.066;11.038;2024-01-15T11:28:57;4.67;;;3.30;;
39256;SDS011;67272;48.066;11.038;2024-01-15T11:31:28;4.47;;;3.20;;
39256;SDS011;67272;48.066;11.038;2024-01-15T11:33:55;5.63;;;4.05;;
39256;SDS011;67272;48.066;11.038;2024-01-15T11:36:35;3.57;;;3.00;;
39256;SDS011;67272;48.066;11.038;2024-01-15T11:39:39;4.73;;;3.53;;
39256;SDS011;67272;48.066;11.038;2024-01-15T11:42:03;5.90;;;4.32;;
39256;SDS011;67272;48.066;11.038;2024-01-15T11:44:29;4.33;;;3.20;;
39256;SDS011;67272;48.066;11.038;2024-01-15T11:52:13;3.27;;;2.70;;
39256;SDS011;67272;48.066;11.038;2024-01-15T11:54:44;4.57;;;3.13;;
39256;SDS011;67272;48.066;11.038;2024-01-15T11:57:16;5.33;;;3.20;;
39256;SDS011;67272;48.066;11.038;2024-01-15T11:59:45;2.57;;;2.20;;
39256;SDS011;67272;48.066;11.038;2024-01-15T12:02:11;2.60;;;2.37;;
39256;SDS011;67272;48.066;11.038;2024-01-15T12:04:38;4.17;;;2.27;;
39256;SDS011;67272;48.066;11.038;2024-01-15T12:07:04;3.83;;;2.63;;
39256;SDS011;67272;48.066;11.038;2024-01-15T12:09:33;2.43;;;2.20;;
39256;SDS011;67272;48.066;11.038;2024-01-15T12:12:02;3.03;;;2.47;;
39256;SDS011;67272;48.066;11.038;2024-01-15T12:14:31;2.83;;;2.10;;
39256;SDS011;67272;48.066;11.038;2024-01-15T12:17:00;3.43;;;2.43;;
39256;SDS011;67272;48.066;11.038;2024-01-15T12:19:26;2.93;;;2.40;;
39256;SDS011;67272;48.066;11.038;2024-01-15T12:21:52;3.63;;;2.40;;
39256;SDS011;67272;48.066;11.038;2024-01-15T12:24:19;3.30;;;2.40;;
39256;SDS011;67272;48.066;11.038;2024-01-15T12:26:45;3.53;;;2.70;;
39256;SDS011;67272;48.066;11.038;2024-01-15T12:29:11;3.23;;;2.90;;
39256;SDS011;67272;48.066;11.038;2024-01-15T12:31:37;4.10;;;2.77;;
39256;SDS011;67272;48.066;11.038;2024-01-15T12:34:03;3.63;;;3.13;;
39256;SDS011;67272;48.066;11.038;2024-01-15T12:36:32;3.47;;;2.90;;
39256;SDS011;67272;48.066;11.038;2024-01-15T12:39:01;3.50;;;3.20;;
39256;SDS011;67272;48.066;11.038;2024-01-15T12:41:28;3.73;;;3.20;;
39256;SDS011;67272;48.066;11.038;2024-01-15T12:43:54;3.70;;;3.10;;
39256;SDS011;67272;48.066;11.038;2024-01-15T12:46:20;4.67;;;3.47;;
39256;SDS011;67272;48.066;11.038;2024-01-15T12:48:46;6.23;;;4.20;;
39256;SDS011;67272;48.066;11.038;2024-01-15T12:51:12;4.67;;;3.87;;
39256;SDS011;67272;48.066;11.038;2024-01-15T12:53:38;4.40;;;3.57;;
39256;SDS011;67272;48.066;11.038;2024-01-15T12:56:04;4.27;;;3.50;;
39256;SDS011;67272;48.066;11.038;2024-01-15T12:58:30;4.80;;;3.40;;
39256;SDS011;67272;48.066;11.038;2024-01-15T13:00:56;4.23;;;3.83;;
39256;SDS011;67272;48.066;11.038;2024-01-15T13:03:23;3.90;;;3.13;;
39256;SDS011;67272;48.066;11.038;2024-01-15T13:05:49;3.60;;;3.23;;
39256;SDS011;67272;48.066;11.038;2024-01-15T13:08:17;4.10;;;3.70;;
39256;SDS011;67272;48.066;11.038;2024-01-15T13:10:43;4.63;;;4.00;;
39256;SDS011;67272;48.066;11.038;2024-01-15T13:13:10;6.67;;;4.10;;
39256;SDS011;67272;48.066;11.038;2024-01-15T13:15:36;6.00;;;4.93;;
39256;SDS011;67272;48.066;11.038;2024-01-15T13:18:08;5.13;;;3.57;;
39256;SDS011;67272;48.066;11.038;2024-01-15T13:20:35;3.80;;;3.17;;
39256;SDS011;67272;48.066;11.038;2024-01-15T13:23:01;3.87;;;3.50;;
39256;SDS011;67272;48.066;11.038;2024-01-15T13:25:35;4.10;;;3.67;;
39256;SDS011;67272;48.066;11.038;2024-01-15T13:28:06;5.17;;;3.70;;
39256;SDS011;67272;48.066;11.038;2024-01-15T13:30:33;3.50;;;2.80;;
39256;SDS011;67272;48.066;11.038;2024-01-15T13:32:59;5.30;;;3.37;;
39256;SDS011;67272;48.066;11.038;2024-01-15T13:35:32;4.20;;;3.70;;
39256;SDS011;67272;48.066;11.038;2024-01-15T13:38:02;4.40;;;3.27;;
39256;SDS011;67272;48.066;11.038;2024-01-15T13:40:28;4.67;;;3.50;;
39256;SDS011;67272;48.066;11.038;2024-01-15T13:42:54;4.07;;;2.90;;
39256;SDS011;67272;48.066;11.038;2024-01-15T13:45:23;4.10;;;3.50;;
39256;SDS011;67272;48.066;11.038;2024-01-15T13:47:52;3.67;;;3.00;;
39256;SDS011;67272;48.066;11.038;2024-01-15T13:50:19;2.93;;;2.63;;
39256;SDS011;67272;48.066;11.038;2024-01-15T13:52:45;3.80;;;3.10;;
39256;SDS011;67272;48.066;11.038;2024-01-15T13:55:11;4.23;;;3.23;;
39256;SDS011;67272;48.066;11.038;2024-01-15T13:57:37;4.73;;;3.17;;
39256;SDS011;67272;48.066;11.038;2024-01-15T14:00:04;3.77;;;3.10;;
39256;SDS011;67272;48.066;11.038;2024-01-15T14:02:38;3.63;;;3.03;;
39256;SDS011;67272;48.066;11.038;2024-01-15T14:05:04;4.33;;;2.90;;
39256;SDS011;67272;48.066;11.038;2024-01-15T14:07:31;3.40;;;2.70;;
39256;SDS011;67272;48.066;11.038;2024-01-15T14:09:58;4.35;;;3.95;;
39256;SDS011;67272;48.066;11.038;2024-01-15T14:12:27;3.10;;;2.80;;
39256;SDS011;67272;48.066;11.038;2024-01-15T14:14:53;2.90;;;2.60;;
39256;SDS011;67272;48.066;11.038;2024-01-15T14:17:27;3.70;;;2.97;;
39256;SDS011;67272;48.066;11.038;2024-01-15T14:19:53;3.63;;;2.73;;
39256;SDS011;67272;48.066;11.038;2024-01-15T14:22:20;4.07;;;3.10;;
39256;SDS011;67272;48.066;11.038;2024-01-15T14:24:46;4.70;;;3.07;;
39256;SDS011;67272;48.066;11.038;2024-01-15T14:27:12;3.50;;;2.73;;
39256;SDS011;67272;48.066;11.038;2024-01-15T14:29:39;4.23;;;3.27;;
39256;SDS011;67272;48.066;11.038;2024-01-15T14:32:05;4.43;;;3.27;;
39256;SDS011;67272;48.066;11.038;2024-01-15T14:34:31;4.23;;;3.20;;
39256;SDS011;67272;48.066;11.038;2024-01-15T14:36:58;4.40;;;3.23;;
39256;SDS011;67272;48.066;11.038;2024-01-15T14:39:24;4.10;;;3.10;;
39256;SDS011;67272;48.066;11.038;2024-01-15T14:41:51;3.47;;;3.17;;
39256;SDS011;67272;48.066;11.038;2024-01-15T14:44:17;3.83;;;3.03;;
39256;SDS011;67272;48.066;11.038;2024-01-15T14:46:44;5.70;;;3.20;;
39256;SDS011;67272;48.066;11.038;2024-01-15T14:49:14;3.07;;;2.77;;
39256;SDS011;67272;48.066;11.038;2024-01-15T14:51:42;2.70;;;2.43;;